sensor_id;sensor_type;location;lat;lon;timestamp;pressure;altitude;pressure_sealevel;temperature;humidity
39301;BME280;25019;42.626;23.380;2023-05-11T00:00:06;94625.31;;;8.30;100.00
39301;BME280;25019;42.626;23.380;2023-05-11T00:02:32;94652.97;;;8.46;100.00
39301;BME280;25019;42.626;23.380;2023-05-11T00:04:58;94601.81;;;8.09;100.00
39301;BME280;25019;42.626;23.380;2023-05-11T00:07:23;94657.53;;;8.38;100.00
39301;BME280;25019;42.626;23.380;2023-05-11T00:09:49;94646.84;;;8.33;100.00
39301;BME280;25019;42.626;23.380;2023-05-11T00:12:15;94656.06;;;8.43;100.00
39301;BME280;25019;42.626;23.380;2023-05-11T00:14:41;94659.94;;;8.40;100.00
39301;BME280;25019;42.626;23.380;2023-05-11T00:17:06;94603.03;;;7.95;100.00
39301;BME280;25019;42.626;23.380;2023-05-11T00:19:32;94586.38;;;7.94;100.00
39301;BME280;25019;42.626;23.380;2023-05-11T00:21:58;94557.44;;;7.69;100.00
39301;BME280;25019;42.626;23.380;2023-05-11T00:24:24;94573.56;;;7.79;100.00
39301;BME280;25019;42.626;23.380;2023-05-11T00:26:50;94543.09;;;7.65;100.00
39301;BME280;25019;42.626;23.380;2023-05-11T00:29:16;94659.38;;;8.38;100.00
39301;BME280;25019;42.626;23.380;2023-05-11T00:31:42;94655.66;;;8.27;100.00
39301;BME280;25019;42.626;23.380;2023-05-11T00:34:16;94671.69;;;8.44;100.00
39301;BME280;25019;42.626;23.380;2023-05-11T00:36:42;94667.44;;;8.43;100.00
39301;BME280;25019;42.626;23.380;2023-05-11T00:39:09;94672.00;;;8.24;100.00
39301;BME280;25019;42.626;23.380;2023-05-11T00:41:37;94625.47;;;7.92;100.00
39301;BME280;25019;42.626;23.380;2023-05-11T00:44:03;94675.34;;;8.31;100.00
39301;BME280;25019;42.626;23.380;2023-05-11T00:46:28;94573.78;;;7.66;100.00
39301;BME280;25019;42.626;23.380;2023-05-11T00:48:55;94612.25;;;7.92;100.00
39301;BME280;25019;42.626;23.380;2023-05-11T00:51:21;94684.47;;;8.35;100.00
39301;BME280;25019;42.626;23.380;2023-05-11T00:53:48;94670.50;;;8.28;100.00
39301;BME280;25019;42.626;23.380;2023-05-11T00:56:14;94643.09;;;8.10;100.00
39301;BME280;25019;42.626;23.380;2023-05-11T00:58:40;94673.97;;;8.29;100.00
39301;BME280;25019;42.626;23.380;2023-05-11T01:01:05;94679.16;;;8.23;100.00
39301;BME280;25019;42.626;23.380;2023-05-11T01:03:31;94627.53;;;7.90;100.00
39301;BME280;25019;42.626;23.380;2023-05-11T01:06:10;94596.06;;;7.70;100.00
39301;BME280;25019;42.626;23.380;2023-05-11T01:08:43;94669.47;;;8.17;100.00
39301;BME280;25019;42.626;23.380;2023-05-11T01:11:22;94688.13;;;8.22;100.00
39301;BME280;25019;42.626;23.380;2023-05-11T01:14:11;94671.91;;;8.19;100.00
39301;BME280;25019;42.626;23.380;2023-05-11T01:16:42;94680.19;;;8.22;100.00
39301;BME280;25019;42.626;23.380;2023-05-11T01:22:33;94683.13;;;8.14;100.00
39301;BME280;25019;42.626;23.380;2023-05-11T01:30:56;94681.34;;;7.96;100.00
39301;BME280;25019;42.626;23.380;2023-05-11T01:33:31;94677.91;;;7.95;100.00
39301;BME280;25019;42.626;23.380;2023-05-11T01:36:08;94668.31;;;7.83;100.00
39301;BME280;25019;42.626;23.380;2023-05-11T01:38:36;94678.44;;;7.86;100.00
39301;BME280;25019;42.626;23.380;2023-05-11T01:41:09;94672.94;;;7.87;100.00
39301;BME280;25019;42.626;23.380;2023-05-11T01:43:36;94680.78;;;7.94;100.00
39301;BME280;25019;42.626;23.380;2023-05-11T01:46:06;94672.03;;;7.93;100.00
39301;BME280;25019;42.626;23.380;2023-05-11T01:48:37;94620.75;;;7.52;100.00
39301;BME280;25019;42.626;23.380;2023-05-11T01:51:04;94682.84;;;7.92;100.00
39301;BME280;25019;42.626;23.380;2023-05-11T01:53:32;94681.59;;;7.94;100.00
39301;BME280;25019;42.626;23.380;2023-05-11T01:56:00;94670.81;;;7.77;100.00
39301;BME280;25019;42.626;23.380;2023-05-11T01:58:28;94603.44;;;7.38;100.00
39301;BME280;25019;42.626;23.380;2023-05-11T02:00:54;94632.34;;;7.51;100.00
39301;BME280;25019;42.626;23.380;2023-05-11T02:03:21;94626.31;;;7.44;100.00
39301;BME280;25019;42.626;23.380;2023-05-11T02:05:48;94575.19;;;7.19;100.00
39301;BME280;25019;42.626;23.380;2023-05-11T02:08:15;94572.28;;;7.09;100.00
39301;BME280;25019;42.626;23.380;2023-05-11T02:10:42;94621.47;;;7.41;100.00
39301;BME280;25019;42.626;23.380;2023-05-11T02:13:09;94675.63;;;7.69;100.00
39301;BME280;25019;42.626;23.380;2023-05-11T02:15:40;94678.41;;;7.74;100.00
39301;BME280;25019;42.626;23.380;2023-05-11T02:18:13;94627.50;;;7.48;100.00
39301;BME280;25019;42.626;23.380;2023-05-11T02:20:42;94648.44;;;7.61;100.00
39301;BME280;25019;42.626;23.380;2023-05-11T02:23:08;94639.16;;;7.59;100.00
39301;BME280;25019;42.626;23.380;2023-05-11T02:25:36;94643.31;;;7.67;100.00
39301;BME280;25019;42.626;23.380;2023-05-11T02:28:02;94596.31;;;7.38;100.00
39301;BME280;25019;42.626;23.380;2023-05-11T02:30:30;94658.53;;;7.83;100.00
39301;BME280;25019;42.626;23.380;2023-05-11T02:33:02;94668.91;;;7.85;100.00
39301;BME280;25019;42.626;23.380;2023-05-11T02:35:32;94636.16;;;7.67;100.00
39301;BME280;25019;42.626;23.380;2023-05-11T02:38:02;94614.50;;;7.46;100.00
39301;BME280;25019;42.626;23.380;2023-05-11T02:40:33;94669.00;;;7.78;100.00
39301;BME280;25019;42.626;23.380;2023-05-11T02:43:18;94616.09;;;7.47;100.00
39301;BME280;25019;42.626;23.380;2023-05-11T02:45:53;94599.13;;;7.25;100.00
39301;BME280;25019;42.626;23.380;2023-05-11T02:48:25;94675.38;;;7.70;100.00
39301;BME280;25019;42.626;23.380;2023-05-11T02:50:53;94672.63;;;7.65;100.00
39301;BME280;25019;42.626;23.380;2023-05-11T02:53:24;94675.72;;;7.62;100.00
39301;BME280;25019;42.626;23.380;2023-05-11T02:56:15;94674.88;;;7.61;100.00
39301;BME280;25019;42.626;23.380;2023-05-11T02:58:41;94670.78;;;7.65;100.00
39301;BME280;25019;42.626;23.380;2023-05-11T03:01:20;94561.88;;;6.96;100.00
39301;BME280;25019;42.626;23.380;2023-05-11T03:03:46;94666.06;;;7.68;100.00
39301;BME280;25019;42.626;23.380;2023-05-11T03:06:12;94674.69;;;7.63;100.00
39301;BME280;25019;42.626;23.380;2023-05-11T03:08:38;94601.41;;;7.21;100.00
39301;BME280;25019;42.626;23.380;2023-05-11T03:11:05;94617.06;;;7.34;100.00
39301;BME280;25019;42.626;23.380;2023-05-11T03:13:47;94608.81;;;7.31;100.00
39301;BME280;25019;42.626;23.380;2023-05-11T03:19:15;94656.38;;;7.61;100.00
39301;BME280;25019;42.626;23.380;2023-05-11T03:21:41;94668.13;;;7.65;100.00
39301;BME280;25019;42.626;23.380;2023-05-11T03:24:08;94658.81;;;7.63;100.00
39301;BME280;25019;42.626;23.380;2023-05-11T03:26:35;94667.84;;;7.55;100.00
39301;BME280;25019;42.626;23.380;2023-05-11T03:29:01;94623.47;;;7.27;100.00
39301;BME280;25019;42.626;23.380;2023-05-11T03:31:30;94613.19;;;7.18;100.00
39301;BME280;25019;42.626;23.380;2023-05-11T03:33:57;94614.91;;;7.13;100.00
39301;BME280;25019;42.626;23.380;2023-05-11T03:36:25;94673.81;;;7.50;100.00
39301;BME280;25019;42.626;23.380;2023-05-11T03:38:53;94675.41;;;7.52;100.00
39301;BME280;25019;42.626;23.380;2023-05-11T03:41:22;94677.03;;;7.53;100.00
39301;BME280;25019;42.626;23.380;2023-05-11T03:43:53;94672.97;;;7.69;100.00
39301;BME280;25019;42.626;23.380;2023-05-11T03:46:21;94676.22;;;7.71;100.00
39301;BME280;25019;42.626;23.380;2023-05-11T03:48:49;94626.81;;;7.53;100.00
39301;BME280;25019;42.626;23.380;2023-05-11T03:51:19;94622.47;;;7.58;100.00
39301;BME280;25019;42.626;23.380;2023-05-11T03:53:45;94668.59;;;7.93;100.00
39301;BME280;25019;42.626;23.380;2023-05-11T03:56:11;94677.81;;;8.02;100.00
39301;BME280;25019;42.626;23.380;2023-05-11T03:58:38;94675.53;;;8.06;100.00
39301;BME280;25019;42.626;23.380;2023-05-11T04:01:06;94657.00;;;7.94;100.00
39301;BME280;25019;42.626;23.380;2023-05-11T04:03:49;94685.34;;;8.17;100.00
39301;BME280;25019;42.626;23.380;2023-05-11T04:06:16;94689.59;;;8.18;100.00
39301;BME280;25019;42.626;23.380;2023-05-11T04:08:43;94690.00;;;8.34;100.00
39301;BME280;25019;42.626;23.380;2023-05-11T04:11:09;94678.59;;;8.33;100.00
39301;BME280;25019;42.626;23.380;2023-05-11T04:13:35;94686.13;;;8.48;100.00
39301;BME280;25019;42.626;23.380;2023-05-11T04:16:00;94693.03;;;8.49;100.00
39301;BME280;25019;42.626;23.380;2023-05-11T04:18:26;94689.75;;;8.35;100.00
39301;BME280;25019;42.626;23.380;2023-05-11T04:20:52;94642.06;;;8.12;100.00
39301;BME280;25019;42.626;23.380;2023-05-11T04:23:18;94686.06;;;8.36;100.00
39301;BME280;25019;42.626;23.380;2023-05-11T04:25:44;94601.34;;;7.70;100.00
39301;BME280;25019;42.626;23.380;2023-05-11T04:28:10;94633.81;;;7.77;100.00
39301;BME280;25019;42.626;23.380;2023-05-11T04:30:35;94708.41;;;8.10;100.00
39301;BME280;25019;42.626;23.380;2023-05-11T04:33:01;94706.69;;;8.04;100.00
39301;BME280;25019;42.626;23.380;2023-05-11T04:35:27;94696.06;;;7.92;100.00
39301;BME280;25019;42.626;23.380;2023-05-11T04:37:53;94688.59;;;7.89;100.00
39301;BME280;25019;42.626;23.380;2023-05-11T04:40:19;94707.69;;;7.91;100.00
39301;BME280;25019;42.626;23.380;2023-05-11T04:42:46;94613.63;;;7.34;100.00
39301;BME280;25019;42.626;23.380;2023-05-11T04:45:15;94714.34;;;7.93;100.00
39301;BME280;25019;42.626;23.380;2023-05-11T04:47:41;94679.56;;;7.78;100.00
39301;BME280;25019;42.626;23.380;2023-05-11T04:50:08;94706.50;;;7.87;100.00
39301;BME280;25019;42.626;23.380;2023-05-11T04:52:34;94695.34;;;7.85;100.00
39301;BME280;25019;42.626;23.380;2023-05-11T04:55:01;94683.59;;;7.80;100.00
39301;BME280;25019;42.626;23.380;2023-05-11T04:57:27;94661.53;;;7.56;100.00
39301;BME280;25019;42.626;23.380;2023-05-11T04:59:52;94715.63;;;7.91;100.00
39301;BME280;25019;42.626;23.380;2023-05-11T05:02:18;94705.94;;;7.85;100.00
39301;BME280;25019;42.626;23.380;2023-05-11T05:04:44;94714.78;;;7.90;100.00
39301;BME280;25019;42.626;23.380;2023-05-11T05:07:10;94698.66;;;7.80;100.00
39301;BME280;25019;42.626;23.380;2023-05-11T05:09:36;94710.63;;;7.83;100.00
39301;BME280;25019;42.626;23.380;2023-05-11T05:12:02;94702.69;;;7.83;100.00
39301;BME280;25019;42.626;23.380;2023-05-11T05:14:28;94666.56;;;7.46;100.00
39301;BME280;25019;42.626;23.380;2023-05-11T05:16:54;94693.19;;;7.63;100.00
39301;BME280;25019;42.626;23.380;2023-05-11T05:19:20;94699.41;;;7.69;100.00
39301;BME280;25019;42.626;23.380;2023-05-11T05:21:47;94734.56;;;7.88;100.00
39301;BME280;25019;42.626;23.380;2023-05-11T05:24:13;94680.13;;;7.49;100.00
39301;BME280;25019;42.626;23.380;2023-05-11T05:26:39;94715.47;;;7.86;100.00
39301;BME280;25019;42.626;23.380;2023-05-11T05:29:05;94661.25;;;7.46;100.00
39301;BME280;25019;42.626;23.380;2023-05-11T05:31:31;94642.56;;;7.29;100.00
39301;BME280;25019;42.626;23.380;2023-05-11T05:33:57;94660.00;;;7.48;100.00
39301;BME280;25019;42.626;23.380;2023-05-11T05:36:23;94695.16;;;7.68;100.00
39301;BME280;25019;42.626;23.380;2023-05-11T05:38:49;94730.31;;;7.87;100.00
39301;BME280;25019;42.626;23.380;2023-05-11T05:41:15;94736.53;;;7.92;100.00
39301;BME280;25019;42.626;23.380;2023-05-11T05:43:43;94726.13;;;7.79;100.00
39301;BME280;25019;42.626;23.380;2023-05-11T05:46:09;94672.78;;;7.52;100.00
39301;BME280;25019;42.626;23.380;2023-05-11T05:48:35;94736.69;;;7.98;100.00
39301;BME280;25019;42.626;23.380;2023-05-11T05:51:01;94679.22;;;7.56;100.00
39301;BME280;25019;42.626;23.380;2023-05-11T05:53:26;94691.91;;;7.65;100.00
39301;BME280;25019;42.626;23.380;2023-05-11T05:55:53;94683.19;;;7.65;100.00
39301;BME280;25019;42.626;23.380;2023-05-11T05:58:19;94720.53;;;7.87;100.00
39301;BME280;25019;42.626;23.380;2023-05-11T06:00:44;94751.78;;;8.09;100.00
39301;BME280;25019;42.626;23.380;2023-05-11T06:03:11;94734.19;;;8.03;100.00
39301;BME280;25019;42.626;23.380;2023-05-11T06:05:37;94748.63;;;8.19;100.00
39301;BME280;25019;42.626;23.380;2023-05-11T06:08:03;94643.78;;;7.45;100.00
39301;BME280;25019;42.626;23.380;2023-05-11T06:10:29;94764.25;;;8.20;100.00
39301;BME280;25019;42.626;23.380;2023-05-11T06:12:55;94764.41;;;8.25;100.00
39301;BME280;25019;42.626;23.380;2023-05-11T06:15:21;94666.75;;;7.63;100.00
39301;BME280;25019;42.626;23.380;2023-05-11T06:17:53;94712.53;;;7.75;100.00
39301;BME280;25019;42.626;23.380;2023-05-11T06:20:19;94760.19;;;8.06;100.00
39301;BME280;25019;42.626;23.380;2023-05-11T06:22:46;94745.94;;;7.88;100.00
39301;BME280;25019;42.626;23.380;2023-05-11T06:25:12;94757.59;;;7.99;100.00
39301;BME280;25019;42.626;23.380;2023-05-11T06:27:39;94724.53;;;7.78;100.00
39301;BME280;25019;42.626;23.380;2023-05-11T06:30:05;94762.25;;;8.04;100.00
39301;BME280;25019;42.626;23.380;2023-05-11T06:32:34;94762.91;;;7.80;100.00
39301;BME280;25019;42.626;23.380;2023-05-11T06:35:00;94746.97;;;7.87;100.00
39301;BME280;25019;42.626;23.380;2023-05-11T06:37:29;94764.75;;;7.99;100.00
39301;BME280;25019;42.626;23.380;2023-05-11T06:39:55;94782.28;;;8.12;100.00
39301;BME280;25019;42.626;23.380;2023-05-11T06:42:22;94774.44;;;8.05;100.00
39301;BME280;25019;42.626;23.380;2023-05-11T06:44:48;94777.78;;;8.12;100.00
39301;BME280;25019;42.626;23.380;2023-05-11T06:47:14;94758.44;;;8.00;100.00
39301;BME280;25019;42.626;23.380;2023-05-11T06:49:40;94758.91;;;8.08;100.00
39301;BME280;25019;42.626;23.380;2023-05-11T06:52:07;94757.19;;;7.84;100.00
39301;BME280;25019;42.626;23.380;2023-05-11T06:54:33;94750.09;;;7.96;100.00
39301;BME280;25019;42.626;23.380;2023-05-11T06:56:59;94781.16;;;8.19;100.00
39301;BME280;25019;42.626;23.380;2023-05-11T06:59:30;94724.47;;;7.97;100.00
39301;BME280;25019;42.626;23.380;2023-05-11T07:01:57;94774.69;;;8.34;100.00
39301;BME280;25019;42.626;23.380;2023-05-11T07:04:22;94720.28;;;8.07;100.00
39301;BME280;25019;42.626;23.380;2023-05-11T07:06:48;94712.47;;;8.13;100.00
39301;BME280;25019;42.626;23.380;2023-05-11T07:09:14;94784.22;;;8.65;100.00
39301;BME280;25019;42.626;23.380;2023-05-11T07:11:43;94777.00;;;8.73;100.00
39301;BME280;25019;42.626;23.380;2023-05-11T07:14:09;94767.78;;;8.75;100.00
39301;BME280;25019;42.626;23.380;2023-05-11T07:16:35;94775.16;;;8.85;100.00
39301;BME280;25019;42.626;23.380;2023-05-11T07:19:04;94776.47;;;8.94;100.00
39301;BME280;25019;42.626;23.380;2023-05-11T07:21:30;94734.97;;;8.64;100.00
39301;BME280;25019;42.626;23.380;2023-05-11T07:23:59;94765.03;;;8.94;100.00
39301;BME280;25019;42.626;23.380;2023-05-11T07:26:25;94781.66;;;9.13;100.00
39301;BME280;25019;42.626;23.380;2023-05-11T07:28:50;94734.19;;;8.88;100.00
39301;BME280;25019;42.626;23.380;2023-05-11T07:31:16;94791.22;;;9.26;100.00
39301;BME280;25019;42.626;23.380;2023-05-11T07:33:42;94710.22;;;8.82;100.00
39301;BME280;25019;42.626;23.380;2023-05-11T07:36:08;94747.09;;;9.08;100.00
39301;BME280;25019;42.626;23.380;2023-05-11T07:38:34;94730.53;;;9.12;100.00
39301;BME280;25019;42.626;23.380;2023-05-11T07:41:00;94733.28;;;9.29;100.00
39301;BME280;25019;42.626;23.380;2023-05-11T07:43:26;94737.28;;;9.44;100.00
39301;BME280;25019;42.626;23.380;2023-05-11T07:45:52;94785.53;;;9.82;100.00
39301;BME280;25019;42.626;23.380;2023-05-11T07:48:17;94681.63;;;9.44;100.00
39301;BME280;25019;42.626;23.380;2023-05-11T07:50:43;94785.84;;;10.38;100.00
39301;BME280;25019;42.626;23.380;2023-05-11T07:53:09;94756.19;;;10.41;100.00
39301;BME280;25019;42.626;23.380;2023-05-11T07:55:35;94714.75;;;10.11;100.00
39301;BME280;25019;42.626;23.380;2023-05-11T07:58:01;94775.41;;;10.77;100.00
39301;BME280;25019;42.626;23.380;2023-05-11T08:00:26;94747.47;;;10.75;100.00
39301;BME280;25019;42.626;23.380;2023-05-11T08:02:52;94736.28;;;10.90;100.00
39301;BME280;25019;42.626;23.380;2023-05-11T08:05:18;94699.47;;;10.82;100.00
39301;BME280;25019;42.626;23.380;2023-05-11T08:07:44;94744.81;;;10.92;100.00
39301;BME280;25019;42.626;23.380;2023-05-11T08:10:13;94779.78;;;11.18;100.00
39301;BME280;25019;42.626;23.380;2023-05-11T08:12:39;94737.91;;;10.91;100.00
39301;BME280;25019;42.626;23.380;2023-05-11T08:15:05;94789.16;;;11.60;100.00
39301;BME280;25019;42.626;23.380;2023-05-11T08:17:31;94778.00;;;11.80;97.99
39301;BME280;25019;42.626;23.380;2023-05-11T08:19:57;94786.16;;;11.95;97.45
39301;BME280;25019;42.626;23.380;2023-05-11T08:22:22;94771.69;;;12.08;90.62
39301;BME280;25019;42.626;23.380;2023-05-11T08:24:49;94786.25;;;12.23;86.94
39301;BME280;25019;42.626;23.380;2023-05-11T08:27:17;94775.56;;;12.18;84.76
39301;BME280;25019;42.626;23.380;2023-05-11T08:29:43;94770.34;;;12.06;84.13
39301;BME280;25019;42.626;23.380;2023-05-11T08:32:09;94781.50;;;12.25;84.58
39301;BME280;25019;42.626;23.380;2023-05-11T08:34:35;94729.16;;;11.91;82.85
39301;BME280;25019;42.626;23.380;2023-05-11T08:37:00;94709.16;;;11.89;81.67
39301;BME280;25019;42.626;23.380;2023-05-11T08:39:27;94793.72;;;12.48;80.47
39301;BME280;25019;42.626;23.380;2023-05-11T08:41:55;94705.81;;;11.76;81.38
39301;BME280;25019;42.626;23.380;2023-05-11T08:44:22;94753.44;;;12.17;80.25
39301;BME280;25019;42.626;23.380;2023-05-11T08:46:51;94777.78;;;12.53;79.65
39301;BME280;25019;42.626;23.380;2023-05-11T08:49:18;94776.69;;;12.77;79.23
39301;BME280;25019;42.626;23.380;2023-05-11T08:51:44;94713.09;;;12.31;78.66
39301;BME280;25019;42.626;23.380;2023-05-11T08:54:10;94770.59;;;12.81;76.83
39301;BME280;25019;42.626;23.380;2023-05-11T08:56:39;94757.38;;;12.97;76.10
39301;BME280;25019;42.626;23.380;2023-05-11T08:59:06;94700.28;;;12.87;76.82
39301;BME280;25019;42.626;23.380;2023-05-11T09:01:33;94763.00;;;13.33;76.60
39301;BME280;25019;42.626;23.380;2023-05-11T09:03:59;94760.00;;;13.24;75.00
39301;BME280;25019;42.626;23.380;2023-05-11T09:06:26;94745.38;;;13.32;74.10
39301;BME280;25019;42.626;23.380;2023-05-11T09:08:52;94724.38;;;13.41;74.18
39301;BME280;25019;42.626;23.380;2023-05-11T09:11:18;94738.00;;;13.92;72.64
39301;BME280;25019;42.626;23.380;2023-05-11T09:13:44;94725.41;;;13.77;72.21
39301;BME280;25019;42.626;23.380;2023-05-11T09:16:10;94728.25;;;13.60;73.19
39301;BME280;25019;42.626;23.380;2023-05-11T09:18:51;94767.09;;;13.89;72.89
39301;BME280;25019;42.626;23.380;2023-05-11T09:21:17;94752.47;;;14.07;72.02
39301;BME280;25019;42.626;23.380;2023-05-11T09:23:43;94724.41;;;13.46;73.56
39301;BME280;25019;42.626;23.380;2023-05-11T09:26:20;94743.13;;;14.04;71.99
39301;BME280;25019;42.626;23.380;2023-05-11T09:28:57;94766.72;;;14.38;71.13
39301;BME280;25019;42.626;23.380;2023-05-11T09:31:39;94764.09;;;14.54;70.06
39301;BME280;25019;42.626;23.380;2023-05-11T09:34:18;94715.34;;;14.00;70.90
39301;BME280;25019;42.626;23.380;2023-05-11T09:36:48;94762.13;;;14.13;71.27
39301;BME280;25019;42.626;23.380;2023-05-11T09:39:14;94747.94;;;14.02;71.16
39301;BME280;25019;42.626;23.380;2023-05-11T09:41:41;94717.59;;;13.66;72.33
39301;BME280;25019;42.626;23.380;2023-05-11T09:44:11;94740.53;;;13.67;73.19
39301;BME280;25019;42.626;23.380;2023-05-11T09:46:42;94715.81;;;13.39;72.98
39301;BME280;25019;42.626;23.380;2023-05-11T09:49:09;94761.88;;;13.61;74.47
39301;BME280;25019;42.626;23.380;2023-05-11T09:51:37;94716.00;;;13.27;74.59
39301;BME280;25019;42.626;23.380;2023-05-11T09:54:20;94746.59;;;13.46;75.81
39301;BME280;25019;42.626;23.380;2023-05-11T09:56:51;94750.59;;;13.49;77.19
39301;BME280;25019;42.626;23.380;2023-05-11T09:59:40;94757.97;;;13.80;74.84
39301;BME280;25019;42.626;23.380;2023-05-11T10:02:24;94757.41;;;13.72;73.73
39301;BME280;25019;42.626;23.380;2023-05-11T10:04:52;94755.00;;;13.76;74.11
39301;BME280;25019;42.626;23.380;2023-05-11T10:07:33;94743.50;;;13.70;73.84
39301;BME280;25019;42.626;23.380;2023-05-11T10:10:03;94748.34;;;13.73;73.59
39301;BME280;25019;42.626;23.380;2023-05-11T10:12:29;94650.50;;;12.98;73.11
39301;BME280;25019;42.626;23.380;2023-05-11T10:15:06;94735.47;;;13.65;73.14
39301;BME280;25019;42.626;23.380;2023-05-11T10:17:32;94732.31;;;13.73;73.03
39301;BME280;25019;42.626;23.380;2023-05-11T10:19:59;94733.34;;;13.67;72.79
39301;BME280;25019;42.626;23.380;2023-05-11T10:22:26;94732.53;;;13.61;72.92
39301;BME280;25019;42.626;23.380;2023-05-11T10:24:52;94680.13;;;13.45;71.03
39301;BME280;25019;42.626;23.380;2023-05-11T10:27:19;94719.09;;;14.15;69.97
39301;BME280;25019;42.626;23.380;2023-05-11T10:29:46;94715.41;;;14.21;69.44
39301;BME280;25019;42.626;23.380;2023-05-11T10:32:13;94656.72;;;13.57;68.98
39301;BME280;25019;42.626;23.380;2023-05-11T10:34:40;94650.44;;;13.89;67.77
39301;BME280;25019;42.626;23.380;2023-05-11T10:37:07;94637.06;;;13.84;68.50
39301;BME280;25019;42.626;23.380;2023-05-11T10:39:36;94695.34;;;14.23;68.11
39301;BME280;25019;42.626;23.380;2023-05-11T10:54:32;94713.06;;;14.66;66.46
39301;BME280;25019;42.626;23.380;2023-05-11T11:02:13;94682.63;;;15.03;63.88
39301;BME280;25019;42.626;23.380;2023-05-11T11:04:46;94698.91;;;15.22;63.85
39301;BME280;25019;42.626;23.380;2023-05-11T11:07:12;94658.31;;;14.84;64.31
39301;BME280;25019;42.626;23.380;2023-05-11T11:09:59;94646.25;;;14.87;63.77
39301;BME280;25019;42.626;23.380;2023-05-11T11:12:26;94700.50;;;15.28;64.08
39301;BME280;25019;42.626;23.380;2023-05-11T11:14:57;94706.13;;;15.22;63.74
39301;BME280;25019;42.626;23.380;2023-05-11T11:17:28;94710.66;;;15.47;63.38
39301;BME280;25019;42.626;23.380;2023-05-11T11:20:06;94703.34;;;15.63;62.45
39301;BME280;25019;42.626;23.380;2023-05-11T11:25:08;94697.66;;;15.85;62.03
39301;BME280;25019;42.626;23.380;2023-05-11T11:30:21;94701.06;;;16.12;61.51
39301;BME280;25019;42.626;23.380;2023-05-11T11:32:51;94698.16;;;16.03;61.36
39301;BME280;25019;42.626;23.380;2023-05-11T11:38:07;94636.81;;;15.41;61.60
39301;BME280;25019;42.626;23.380;2023-05-11T11:40:38;94705.41;;;16.02;61.25
39301;BME280;25019;42.626;23.380;2023-05-11T11:43:21;94686.16;;;15.90;61.30
39301;BME280;25019;42.626;23.380;2023-05-11T11:48:39;94669.13;;;15.55;61.26
39301;BME280;25019;42.626;23.380;2023-05-11T11:56:02;94697.13;;;15.99;62.01
39301;BME280;25019;42.626;23.380;2023-05-11T12:01:07;94696.88;;;15.90;60.92
39301;BME280;25019;42.626;23.380;2023-05-11T12:03:36;94634.66;;;15.43;61.13
39301;BME280;25019;42.626;23.380;2023-05-11T12:06:04;94683.53;;;15.69;61.17
39301;BME280;25019;42.626;23.380;2023-05-11T12:08:31;94632.00;;;15.33;61.86
39301;BME280;25019;42.626;23.380;2023-05-11T12:10:57;94687.28;;;15.73;61.98
39301;BME280;25019;42.626;23.380;2023-05-11T12:13:23;94655.53;;;15.41;62.28
39301;BME280;25019;42.626;23.380;2023-05-11T12:15:49;94642.16;;;15.31;62.35
39301;BME280;25019;42.626;23.380;2023-05-11T12:18:22;94673.44;;;15.51;63.24
39301;BME280;25019;42.626;23.380;2023-05-11T12:20:47;94652.63;;;15.27;63.27
39301;BME280;25019;42.626;23.380;2023-05-11T12:23:13;94683.31;;;15.55;63.29
39301;BME280;25019;42.626;23.380;2023-05-11T12:25:39;94674.75;;;15.58;62.42
39301;BME280;25019;42.626;23.380;2023-05-11T12:28:07;94614.88;;;15.39;61.23
39301;BME280;25019;42.626;23.380;2023-05-11T12:30:34;94673.56;;;15.85;60.62
39301;BME280;25019;42.626;23.380;2023-05-11T12:33:00;94616.22;;;15.31;60.94
39301;BME280;25019;42.626;23.380;2023-05-11T12:35:32;94655.28;;;15.32;61.64
39301;BME280;25019;42.626;23.380;2023-05-11T12:38:01;94669.22;;;15.13;63.59
39301;BME280;25019;42.626;23.380;2023-05-11T12:40:27;94568.47;;;14.52;63.58
39301;BME280;25019;42.626;23.380;2023-05-11T12:42:54;94635.03;;;15.05;62.61
39301;BME280;25019;42.626;23.380;2023-05-11T12:45:21;94641.09;;;15.32;62.32
39301;BME280;25019;42.626;23.380;2023-05-11T12:47:49;94598.38;;;15.01;62.75
39301;BME280;25019;42.626;23.380;2023-05-11T12:50:16;94608.28;;;14.79;62.96
39301;BME280;25019;42.626;23.380;2023-05-11T12:52:42;94540.19;;;14.35;63.13
39301;BME280;25019;42.626;23.380;2023-05-11T12:55:08;94639.59;;;14.84;62.82
39301;BME280;25019;42.626;23.380;2023-05-11T12:57:37;94633.44;;;14.68;64.10
39301;BME280;25019;42.626;23.380;2023-05-11T13:00:08;94639.34;;;14.75;64.04
39301;BME280;25019;42.626;23.380;2023-05-11T13:02:53;94627.53;;;14.66;63.97
39301;BME280;25019;42.626;23.380;2023-05-11T13:05:24;94618.47;;;14.41;65.07
39301;BME280;25019;42.626;23.380;2023-05-11T13:08:00;94625.41;;;14.58;65.22
39301;BME280;25019;42.626;23.380;2023-05-11T13:10:26;94627.28;;;14.62;65.28
39301;BME280;25019;42.626;23.380;2023-05-11T13:12:52;94588.53;;;14.29;65.20
39301;BME280;25019;42.626;23.380;2023-05-11T13:15:20;94626.47;;;14.57;65.33
39301;BME280;25019;42.626;23.380;2023-05-11T13:17:47;94584.25;;;14.28;65.22
39301;BME280;25019;42.626;23.380;2023-05-11T13:20:22;94625.69;;;14.61;65.26
39301;BME280;25019;42.626;23.380;2023-05-11T13:22:51;94599.19;;;14.29;65.48
39301;BME280;25019;42.626;23.380;2023-05-11T13:25:26;94567.94;;;14.19;65.66
39301;BME280;25019;42.626;23.380;2023-05-11T13:27:52;94549.78;;;14.11;65.99
39301;BME280;25019;42.626;23.380;2023-05-11T13:30:20;94616.59;;;14.52;65.38
39301;BME280;25019;42.626;23.380;2023-05-11T13:32:46;94570.34;;;14.26;65.52
39301;BME280;25019;42.626;23.380;2023-05-11T13:35:12;94563.69;;;14.28;64.87
39301;BME280;25019;42.626;23.380;2023-05-11T13:37:38;94610.97;;;14.53;65.51
39301;BME280;25019;42.626;23.380;2023-05-11T13:40:05;94618.19;;;14.63;65.15
39301;BME280;25019;42.626;23.380;2023-05-11T13:42:33;94568.22;;;14.28;65.22